Time;durP1;ratioP1;P1;durP2;ratioP2;P2;SDS_P1;SDS_P2;PMS_P1;PMS_P2;Temp;Humidity;BMP_temperature;BMP_pressure;BME280_temperature;BME280_humidity;BME280_pressure;Samples;Min_cycle;Max_cycle;Signal;HPM_P1;HPM_P2
2024/02/03 00:01:32;;;;;;;2.40;2.20;;;;;;;19.52;47.38;98521.13;5030641;28;20266;-27
2024/02/03 00:03:59;;;;;;;2.50;2.30;;;;;;;19.52;47.37;98519.47;5030597;28;20249;-24
2024/02/03 00:06:26;;;;;;;2.57;2.37;;;;;;;19.53;47.07;98522.88;5027424;28;20197;-25
2024/02/03 00:08:53;;;;;;;2.83;2.40;;;;;;;19.52;47.42;98516.91;5026112;28;20205;-24
2024/02/03 00:11:20;;;;;;;2.87;2.50;;;;;;;19.53;47.35;98520.31;5030070;28;20272;-25
2024/02/03 00:13:47;;;;;;;3.57;2.50;;;;;;;19.53;47.40;98518.66;5030754;28;20225;-25
2024/02/03 00:16:14;;;;;;;2.50;2.30;;;;;;;19.52;47.50;98522.00;5032972;28;20222;-24
2024/02/03 00:18:41;;;;;;;2.90;2.40;;;;;;;19.53;47.41;98525.41;5034117;28;20656;-25
2024/02/03 00:21:08;;;;;;;2.80;2.20;;;;;;;19.52;47.47;98523.66;5015869;28;20197;-24
2024/02/03 00:23:35;;;;;;;2.40;2.20;;;;;;;19.52;47.49;98528.78;5032825;28;20229;-25
2024/02/03 00:26:01;;;;;;;2.30;2.10;;;;;;;19.51;47.59;98532.97;5032373;28;20233;-23
2024/02/03 00:28:28;;;;;;;2.47;2.27;;;;;;;19.51;47.62;98524.47;5033682;28;20562;-25
2024/02/03 00:30:54;;;;;;;2.40;2.20;;;;;;;19.51;47.50;98522.78;5033612;28;20202;-24
2024/02/03 00:33:21;;;;;;;2.37;2.07;;;;;;;19.52;47.46;98521.13;5030882;28;20735;-25
2024/02/03 00:35:48;;;;;;;2.30;2.10;;;;;;;19.51;47.49;98527.88;5033109;28;20229;-24
2024/02/03 00:38:14;;;;;;;2.53;2.30;;;;;;;19.52;46.73;98527.09;5033539;28;20359;-24
2024/02/03 00:40:41;;;;;;;2.30;2.10;;;;;;;19.53;47.44;98523.75;5032941;28;20205;-26
2024/02/03 00:43:08;;;;;;;2.67;2.40;;;;;;;19.53;47.26;98527.97;5031400;28;20217;-26
2024/02/03 00:45:34;;;;;;;2.10;2.00;;;;;;;19.53;47.54;98531.41;5033285;28;20197;-24
2024/02/03 00:48:01;;;;;;;3.03;2.63;;;;;;;19.53;47.50;98535.59;5033385;28;20201;-25
2024/02/03 00:50:28;;;;;;;2.40;2.20;;;;;;;19.52;47.51;98533.88;5035330;28;20249;-25
2024/02/03 00:52:54;;;;;;;2.50;2.30;;;;;;;19.53;47.49;98535.59;5033526;28;20222;-24
2024/02/03 00:55:21;;;;;;;2.40;2.20;;;;;;;19.53;47.65;98535.59;5032946;28;20229;-26
2024/02/03 00:57:47;;;;;;;2.63;2.37;;;;;;;19.53;47.49;98543.25;5033150;28;20247;-25
2024/02/03 01:00:15;;;;;;;2.63;2.40;;;;;;;19.52;47.57;98533.88;5033562;28;20425;-25
2024/02/03 01:02:41;;;;;;;2.30;2.10;;;;;;;19.52;47.54;98539.84;5033104;28;20202;-25
2024/02/03 01:05:08;;;;;;;2.40;2.20;;;;;;;19.51;47.44;98543.19;5024739;28;20245;-25
2024/02/03 01:07:35;;;;;;;2.30;2.10;;;;;;;19.51;47.47;98535.53;5033233;28;20205;-24
2024/02/03 01:10:02;;;;;;;2.30;2.10;;;;;;;19.52;47.38;98523.66;5033251;28;20206;-25
2024/02/03 01:12:31;;;;;;;2.27;2.10;;;;;;;19.53;47.45;98522.88;5032919;28;20197;-25
2024/02/03 01:14:57;;;;;;;2.40;2.10;;;;;;;19.52;47.49;98527.09;5032857;28;20201;-25
2024/02/03 01:17:24;;;;;;;2.20;2.03;;;;;;;19.53;47.59;98520.31;5026430;28;20620;-25
2024/02/03 01:19:51;;;;;;;2.00;1.90;;;;;;;19.53;47.57;98526.31;5032970;28;20285;-24
2024/02/03 01:22:18;;;;;;;2.50;2.30;;;;;;;19.54;47.48;98519.53;5029885;28;20201;-24
2024/02/03 01:24:44;;;;;;;2.57;2.37;;;;;;;19.54;47.68;98517.00;5032437;28;20268;-24
2024/02/03 01:27:11;;;;;;;2.43;2.20;;;;;;;19.52;47.63;98522.00;5023550;28;20209;-25
2024/02/03 01:29:38;;;;;;;2.10;1.90;;;;;;;19.53;47.50;98517.75;5024492;28;20201;-24
2024/02/03 01:32:05;;;;;;;2.40;2.20;;;;;;;19.52;47.66;98522.00;5032521;28;20198;-24
2024/02/03 01:34:32;;;;;;;2.40;2.20;;;;;;;19.52;47.59;98513.47;5032542;28;20291;-25
2024/02/03 01:37:04;;;;;;;2.53;2.33;;;;;;;19.48;47.39;98507.31;5032229;28;20225;-24
2024/02/03 01:39:31;;;;;;;2.20;2.00;;;;;;;19.50;47.29;98510.84;5030153;28;20212;-25
2024/02/03 01:41:58;;;;;;;2.23;2.03;;;;;;;19.50;47.52;98512.50;5026908;28;20635;-25
2024/02/03 01:44:24;;;;;;;2.40;2.20;;;;;;;19.50;47.52;98509.94;5032092;28;20646;-24
2024/02/03 01:46:51;;;;;;;2.00;1.90;;;;;;;19.51;47.55;98509.19;4996571;28;20252;-25
2024/02/03 01:49:18;;;;;;;2.20;2.00;;;;;;;19.50;47.47;98499.75;5030237;28;20833;-24
2024/02/03 01:51:44;;;;;;;2.57;2.20;;;;;;;19.50;47.50;98498.09;5032330;28;20204;-24
2024/02/03 01:54:11;;;;;;;2.00;1.90;;;;;;;19.51;47.94;98489.63;4998444;28;20359;-24
2024/02/03 01:56:41;;;;;;;2.10;2.00;;;;;;;19.53;47.46;98494.81;5032168;28;20221;-25
2024/02/03 01:59:09;;;;;;;2.43;2.23;;;;;;;19.51;47.71;98489.63;5015234;28;20198;-25
2024/02/03 02:01:35;;;;;;;2.53;2.33;;;;;;;19.53;47.25;98492.28;5030461;28;21414;-26
2024/02/03 02:04:02;;;;;;;2.50;2.30;;;;;;;19.52;47.53;98493.06;5031082;28;20217;-26
2024/02/03 02:06:29;;;;;;;2.27;2.07;;;;;;;19.52;47.89;98498.19;5013527;28;20281;-24
2024/02/03 02:08:56;;;;;;;2.07;1.90;;;;;;;19.48;47.61;98494.56;5029960;28;20200;-25
2024/02/03 02:11:24;;;;;;;2.10;2.00;;;;;;;19.51;47.65;98498.97;5031926;28;20272;-24
2024/02/03 02:13:51;;;;;;;2.40;2.20;;;;;;;19.52;47.58;98487.97;5032367;28;20582;-25
2024/02/03 02:16:17;;;;;;;2.50;2.30;;;;;;;19.51;47.64;98488.78;5031562;28;20213;-23
2024/02/03 02:18:44;;;;;;;1.97;1.83;;;;;;;19.50;47.56;98479.34;5031923;28;20201;-25
2024/02/03 02:21:11;;;;;;;2.37;2.17;;;;;;;19.50;47.72;98484.47;5031895;28;20277;-25
2024/02/03 02:23:37;;;;;;;2.07;1.97;;;;;;;19.50;47.54;98487.00;5031560;28;20850;-24
2024/02/03 02:26:04;;;;;;;2.33;2.13;;;;;;;19.50;47.43;98482.78;5031942;28;20725;-24
2024/02/03 02:28:32;;;;;;;2.30;2.10;;;;;;;19.50;47.51;98477.69;5031496;28;20285;-24
2024/02/03 02:30:58;;;;;;;2.13;1.93;;;;;;;19.51;47.49;98479.44;5031590;28;20209;-25
2024/02/03 02:33:25;;;;;;;2.60;2.30;;;;;;;19.52;47.62;98478.66;5031141;28;20224;-25
2024/02/03 02:35:52;;;;;;;2.23;2.03;;;;;;;19.53;47.62;98471.88;5031633;28;20218;-25
2024/02/03 02:38:18;;;;;;;1.80;1.70;;;;;;;19.53;47.50;98476.97;5025742;28;20202;-25
2024/02/03 02:40:45;;;;;;;2.17;1.97;;;;;;;19.52;47.39;98471.03;5028312;28;20604;-24
2024/02/03 02:43:12;;;;;;;2.37;2.17;;;;;;;19.53;47.50;98482.06;5031228;28;20217;-25
2024/02/03 02:45:38;;;;;;;2.13;2.00;;;;;;;19.53;47.15;98476.97;5030826;28;20622;-25
2024/02/03 02:48:05;;;;;;;2.30;2.10;;;;;;;19.52;47.64;98472.69;5031548;28;20232;-25
2024/02/03 02:50:33;;;;;;;2.00;1.80;;;;;;;19.51;47.51;98464.16;5031217;28;20256;-25
2024/02/03 02:52:59;;;;;;;2.10;1.90;;;;;;;19.51;47.53;98464.16;5031317;28;20306;-24
2024/02/03 02:55:26;;;;;;;1.83;1.73;;;;;;;19.51;47.65;98463.28;5030965;28;20236;-25
2024/02/03 02:57:52;;;;;;;1.97;1.83;;;;;;;19.51;47.58;98463.28;5031122;28;20201;-25
2024/02/03 03:00:19;;;;;;;2.17;1.97;;;;;;;19.50;47.70;98464.94;5028341;28;20202;-25
2024/02/03 03:02:46;;;;;;;2.00;1.90;;;;;;;19.51;47.55;98460.75;5030517;28;20202;-24
2024/02/03 03:05:13;;;;;;;1.93;1.80;;;;;;;19.52;47.44;98470.13;5025144;28;20205;-25
2024/02/03 03:07:43;;;;;;;1.93;1.80;;;;;;;19.53;47.18;98471.88;5029700;28;20576;-26
2024/02/03 03:10:10;;;;;;;1.93;1.80;;;;;;;19.52;47.42;98473.56;5022194;28;20202;-24
2024/02/03 03:12:36;;;;;;;1.87;1.77;;;;;;;19.53;47.76;98482.06;5030889;28;20582;-24
2024/02/03 03:15:03;;;;;;;1.93;1.83;;;;;;;19.53;47.50;98485.50;5020278;28;20627;-26
2024/02/03 03:17:30;;;;;;;1.90;1.80;;;;;;;19.53;47.60;98485.50;5031154;28;20267;-24
2024/02/03 03:19:57;;;;;;;2.27;2.07;;;;;;;19.53;47.24;98490.59;5031376;28;20201;-25
2024/02/03 03:22:23;;;;;;;2.30;2.10;;;;;;;19.54;47.47;98500.00;5031093;28;20229;-22
2024/02/03 03:24:50;;;;;;;2.20;2.00;;;;;;;19.54;47.60;98496.59;5055689;22;20220;-25
2024/02/03 03:27:17;;;;;;;2.30;2.10;;;;;;;19.53;47.67;98499.91;5070777;28;20242;-24
2024/02/03 03:29:45;;;;;;;2.33;2.13;;;;;;;19.54;47.65;98504.25;5070473;28;20208;-26
2024/02/03 03:32:12;;;;;;;1.87;1.77;;;;;;;19.51;47.52;98502.38;5070979;28;20231;-26
2024/02/03 03:34:40;;;;;;;2.00;1.90;;;;;;;19.52;47.54;98511.81;5068436;28;20224;-24
2024/02/03 03:37:07;;;;;;;2.13;1.93;;;;;;;19.52;47.69;98501.63;5059281;28;20326;-25
2024/02/03 03:39:34;;;;;;;1.83;1.73;;;;;;;19.51;47.66;98499.84;5051841;28;20231;-25
2024/02/03 03:42:00;;;;;;;2.00;1.90;;;;;;;19.51;47.59;98507.50;5062804;28;20233;-25
2024/02/03 03:44:27;;;;;;;1.90;1.80;;;;;;;19.52;47.57;98501.63;5058926;28;20271;-24
2024/02/03 03:46:55;;;;;;;2.40;2.20;;;;;;;19.53;47.59;98494.81;5055933;28;20197;-25
2024/02/03 03:49:21;;;;;;;2.10;2.00;;;;;;;19.52;47.54;98487.97;5051184;28;20197;-25
2024/02/03 03:51:48;;;;;;;2.03;1.93;;;;;;;19.53;47.52;98510.13;5054271;28;20702;-26
2024/02/03 03:54:15;;;;;;;1.90;1.80;;;;;;;19.53;47.49;98505.00;5054431;28;20200;-24
2024/02/03 03:56:42;;;;;;;2.20;2.00;;;;;;;19.53;47.47;98511.00;5056199;28;20472;-26
2024/02/03 03:59:08;;;;;;;2.00;1.90;;;;;;;19.53;47.55;98515.22;5057311;28;20625;-25
2024/02/03 04:01:35;;;;;;;2.33;2.13;;;;;;;19.52;47.52;98509.25;5054481;28;20205;-26
2024/02/03 04:04:02;;;;;;;1.87;1.77;;;;;;;19.51;47.54;98512.59;5065511;28;20207;-24
2024/02/03 04:06:28;;;;;;;2.03;1.90;;;;;;;19.51;47.61;98511.72;5053769;28;20243;-24
2024/02/03 04:08:56;;;;;;;2.17;1.97;;;;;;;19.52;47.54;98516.03;5057955;28;20200;-25
2024/02/03 04:11:22;;;;;;;2.10;1.97;;;;;;;19.51;47.67;98515.13;5050190;28;20232;-25
2024/02/03 04:13:49;;;;;;;2.13;1.97;;;;;;;19.50;47.63;98515.94;5054685;28;20251;-26
2024/02/03 04:16:16;;;;;;;1.87;1.77;;;;;;;19.50;48.03;98518.50;5062170;28;20228;-25
2024/02/03 04:18:43;;;;;;;2.07;1.90;;;;;;;19.50;47.56;98515.06;5070224;28;20209;-25
2024/02/03 04:21:09;;;;;;;2.10;1.90;;;;;;;19.51;47.75;98515.13;5062217;28;20208;-25
2024/02/03 04:23:36;;;;;;;1.97;1.87;;;;;;;19.51;47.20;98510.03;5054086;28;20436;-26
2024/02/03 04:26:03;;;;;;;2.20;2.00;;;;;;;19.52;47.44;98509.25;5053662;28;20229;-25
2024/02/03 04:28:30;;;;;;;2.20;2.00;;;;;;;19.52;47.42;98510.91;5062422;28;20308;-26
2024/02/03 04:30:58;;;;;;;1.97;1.87;;;;;;;19.53;47.53;98513.56;5047261;28;20200;-26
2024/02/03 04:33:25;;;;;;;2.20;2.00;;;;;;;19.53;47.62;98516.09;5061889;28;20595;-26
2024/02/03 04:35:51;;;;;;;1.90;1.80;;;;;;;19.53;47.62;98522.88;5053216;28;20235;-26
2024/02/03 04:38:18;;;;;;;2.10;2.00;;;;;;;19.53;47.48;98511.00;5060691;28;20200;-24
2024/02/03 04:40:45;;;;;;;2.10;1.90;;;;;;;19.51;47.38;98512.59;5053760;28;20209;-26
2024/02/03 04:43:11;;;;;;;1.93;1.83;;;;;;;19.51;47.55;98507.50;5053384;28;20228;-24
2024/02/03 04:45:38;;;;;;;2.03;1.90;;;;;;;19.52;47.58;98518.56;5052900;28;20271;-26
2024/02/03 04:48:05;;;;;;;2.07;1.93;;;;;;;19.52;47.52;98510.91;5057382;28;20197;-24
2024/02/03 04:50:33;;;;;;;2.10;2.00;;;;;;;19.51;47.68;98514.28;5063071;28;20219;-26
2024/02/03 04:52:59;;;;;;;2.20;1.87;;;;;;;19.50;47.90;98513.41;5045405;28;20685;-25
2024/02/03 04:55:26;;;;;;;2.10;1.97;;;;;;;19.50;47.68;98518.50;5053225;28;20267;-25
2024/02/03 04:57:53;;;;;;;1.90;1.80;;;;;;;19.51;47.73;98507.50;5056036;28;20748;-25
2024/02/03 05:00:19;;;;;;;2.20;2.00;;;;;;;19.52;47.54;98514.34;5058188;28;20574;-26
2024/02/03 05:02:46;;;;;;;2.23;2.03;;;;;;;19.53;47.53;98515.22;5052580;28;20205;-23
2024/02/03 05:05:13;;;;;;;1.83;1.73;;;;;;;19.47;47.44;98505.59;5058892;28;20711;-25
2024/02/03 05:07:39;;;;;;;2.40;2.20;;;;;;;19.53;47.59;98517.75;5058668;28;20279;-26
2024/02/03 05:10:06;;;;;;;1.87;1.77;;;;;;;19.54;47.57;98517.00;5053229;28;20200;-25
2024/02/03 05:12:32;;;;;;;1.93;1.83;;;;;;;19.42;47.67;98494.25;5056374;28;20643;-25
2024/02/03 05:15:00;;;;;;;1.87;1.77;;;;;;;19.53;47.62;98516.09;5053704;28;20228;-25
2024/02/03 05:17:31;;;;;;;2.00;1.80;;;;;;;19.53;47.54;98515.22;5056933;28;20262;-24
2024/02/03 05:19:57;;;;;;;1.80;1.70;;;;;;;19.53;47.61;98520.31;5055736;28;20200;-24
2024/02/03 05:22:24;;;;;;;1.90;1.80;;;;;;;19.53;47.53;98526.31;5056844;28;20205;-25
2024/02/03 05:24:50;;;;;;;2.00;1.90;;;;;;;19.50;47.79;98518.50;5055659;28;20228;-24
2024/02/03 05:27:17;;;;;;;2.00;1.90;;;;;;;19.51;47.41;98520.22;5052784;28;20236;-24
2024/02/03 05:29:44;;;;;;;2.00;1.90;;;;;;;19.50;47.47;98523.59;5054825;28;20238;-26
2024/02/03 05:32:11;;;;;;;1.80;1.70;;;;;;;19.49;47.60;98526.94;5052645;28;20197;-26
2024/02/03 05:34:37;;;;;;;1.97;1.87;;;;;;;19.51;47.58;98524.47;5053498;28;20711;-25
2024/02/03 05:37:04;;;;;;;2.00;1.80;;;;;;;19.51;47.53;98525.34;5054856;28;20220;-25
2024/02/03 05:39:31;;;;;;;2.10;1.97;;;;;;;19.52;47.45;98526.22;5052625;28;20240;-26
2024/02/03 05:41:58;;;;;;;1.97;1.80;;;;;;;19.44;47.41;98519.81;5052031;28;20597;-24
2024/02/03 05:44:24;;;;;;;2.00;1.80;;;;;;;19.53;47.84;98527.97;5065744;28;20640;-25
2024/02/03 05:46:51;;;;;;;1.93;1.83;;;;;;;19.54;47.43;98529.75;5053733;28;20236;-25
2024/02/03 05:49:17;;;;;;;2.30;2.10;;;;;;;19.53;47.26;98525.41;5052669;28;20572;-25
2024/02/03 05:51:44;;;;;;;2.10;1.90;;;;;;;19.52;47.87;98531.31;5052665;28;20577;-24
2024/02/03 05:54:11;;;;;;;2.13;2.03;;;;;;;19.53;47.46;98527.97;5053241;28;20216;-25
2024/02/03 05:56:37;;;;;;;2.00;1.80;;;;;;;19.54;47.66;98537.38;5051816;28;20228;-25
2024/02/03 05:59:04;;;;;;;2.03;1.83;;;;;;;19.53;47.63;98533.06;5049674;28;20216;-25
2024/02/03 06:01:51;;;;;;;1.93;1.83;;;;;;;19.53;47.62;98530.50;5052269;28;20219;-25
2024/02/03 06:04:17;;;;;;;1.90;1.80;;;;;;;19.51;47.53;98529.56;5051668;28;20254;-24
2024/02/03 06:06:44;;;;;;;1.90;1.80;;;;;;;19.52;47.58;98533.88;5059175;28;20244;-25
2024/02/03 06:09:11;;;;;;;1.80;1.70;;;;;;;19.51;47.80;98530.44;5051883;28;20770;-25
2024/02/03 06:11:37;;;;;;;2.07;1.97;;;;;;;19.51;47.46;98532.97;5052198;28;20212;-26
2024/02/03 06:14:04;;;;;;;2.13;2.00;;;;;;;19.52;47.39;98544.97;5051229;28;20229;-25
2024/02/03 06:16:31;;;;;;;1.63;1.53;;;;;;;19.53;47.49;98548.38;5051681;28;20718;-26
2024/02/03 06:18:58;;;;;;;2.00;1.80;;;;;;;19.54;47.39;98551.00;5057793;28;20205;-26
2024/02/03 06:21:24;;;;;;;2.07;1.97;;;;;;;19.54;47.41;98542.50;5051937;28;20204;-25
2024/02/03 06:23:51;;;;;;;1.60;1.50;;;;;;;19.53;47.66;98539.06;5060045;28;20250;-25
2024/02/03 06:26:18;;;;;;;1.83;1.73;;;;;;;19.53;47.47;98549.25;5059736;28;20646;-26
2024/02/03 06:28:44;;;;;;;2.27;2.00;;;;;;;19.54;47.35;98551.00;5051628;28;20209;-25
2024/02/03 06:31:11;;;;;;;1.90;1.80;;;;;;;19.54;47.38;98543.34;5051750;28;20205;-26
2024/02/03 06:33:38;;;;;;;1.90;1.80;;;;;;;19.44;47.44;98525.81;5052514;28;20670;-25
2024/02/03 06:36:04;;;;;;;1.97;1.80;;;;;;;19.54;47.40;98543.34;5050836;28;20244;-25
2024/02/03 06:38:31;;;;;;;2.10;1.90;;;;;;;19.53;47.33;98543.25;5056134;28;20246;-25
2024/02/03 06:40:58;;;;;;;2.10;1.90;;;;;;;19.53;47.48;98556.00;5054195;28;20629;-25
2024/02/03 06:43:24;;;;;;;1.90;1.80;;;;;;;19.53;47.42;98564.56;5057275;28;20660;-25
2024/02/03 06:45:51;;;;;;;1.77;1.67;;;;;;;19.52;47.28;98567.91;5050684;28;20308;-25
2024/02/03 06:48:17;;;;;;;1.80;1.70;;;;;;;19.52;47.44;98567.91;5049911;28;20232;-26
2024/02/03 06:50:45;;;;;;;1.93;1.83;;;;;;;19.52;47.24;98562.81;5045999;28;20205;-24
2024/02/03 06:53:11;;;;;;;2.30;2.10;;;;;;;19.53;47.29;98567.09;5046673;28;20205;-26
2024/02/03 06:55:38;;;;;;;2.00;1.80;;;;;;;19.53;47.26;98562.00;5042698;28;20274;-26
2024/02/03 06:58:04;;;;;;;1.90;1.80;;;;;;;19.54;47.35;98579.03;5050978;28;20221;-24
2024/02/03 07:00:31;;;;;;;2.00;1.90;;;;;;;19.55;47.21;98570.63;5047541;28;20267;-26
2024/02/03 07:02:58;;;;;;;1.90;1.80;;;;;;;19.54;47.19;98570.53;5048195;28;20591;-25
2024/02/03 07:05:24;;;;;;;1.90;1.80;;;;;;;19.55;47.40;98578.28;5051204;28;20217;-26
2024/02/03 07:07:53;;;;;;;2.10;2.00;;;;;;;19.55;47.41;98583.38;5051027;28;20663;-26
2024/02/03 07:10:19;;;;;;;1.90;1.80;;;;;;;19.56;47.28;98581.66;5056550;28;20246;-25
2024/02/03 07:12:46;;;;;;;1.80;1.70;;;;;;;19.56;47.21;98571.47;5050813;28;20200;-25
2024/02/03 07:15:13;;;;;;;2.00;1.80;;;;;;;19.56;47.32;98576.56;5049314;28;20702;-25
2024/02/03 07:17:39;;;;;;;1.80;1.70;;;;;;;19.55;47.40;98578.28;5053687;28;20217;-25
2024/02/03 07:20:06;;;;;;;1.90;1.80;;;;;;;19.55;47.37;98564.63;5056944;28;20196;-24
2024/02/03 07:22:33;;;;;;;1.60;1.50;;;;;;;19.54;47.30;98566.28;5045482;28;20205;-26
2024/02/03 07:24:59;;;;;;;1.80;1.70;;;;;;;19.55;46.82;98567.19;5056106;28;20232;-26
2024/02/03 07:27:26;;;;;;;1.67;1.57;;;;;;;19.55;47.33;98565.50;5055094;28;20259;-25
2024/02/03 07:29:53;;;;;;;1.90;1.80;;;;;;;19.57;47.40;98570.69;5055427;28;20209;-25
2024/02/03 07:32:19;;;;;;;1.73;1.63;;;;;;;19.59;47.17;98574.19;5062635;28;20207;-25
2024/02/03 07:34:46;;;;;;;1.70;1.60;;;;;;;19.59;47.13;98576.75;5048787;28;20294;-25
2024/02/03 07:37:13;;;;;;;1.70;1.60;;;;;;;19.59;47.27;98580.19;5069838;28;20568;-25
2024/02/03 07:39:39;;;;;;;1.90;1.80;;;;;;;19.59;47.15;98580.19;5052373;28;20208;-25
2024/02/03 07:42:06;;;;;;;1.80;1.70;;;;;;;19.59;47.22;98577.63;5059349;28;20634;-26
2024/02/03 07:44:33;;;;;;;1.93;1.83;;;;;;;19.59;47.24;98585.28;5060092;28;20700;-22
2024/02/03 07:46:59;;;;;;;1.70;1.60;;;;;;;19.59;47.34;98582.72;5050737;28;20722;-25
2024/02/03 07:49:26;;;;;;;1.87;1.77;;;;;;;19.59;47.27;98584.38;5064550;28;20291;-26
2024/02/03 07:51:53;;;;;;;1.67;1.57;;;;;;;19.58;47.37;98580.97;5056083;28;20209;-26
2024/02/03 07:54:20;;;;;;;1.70;1.60;;;;;;;19.57;47.23;98580.91;5054091;28;20686;-26
2024/02/03 07:56:46;;;;;;;1.90;1.80;;;;;;;19.55;47.24;98575.72;5059185;28;20864;-26
2024/02/03 07:59:14;;;;;;;1.90;1.80;;;;;;;19.57;47.29;98583.44;5054366;28;20250;-25
2024/02/03 08:01:41;;;;;;;2.23;2.07;;;;;;;19.54;47.32;98583.28;5051294;28;20216;-25
2024/02/03 08:04:07;;;;;;;1.80;1.70;;;;;;;19.54;47.34;98578.19;5046190;28;20204;-25
2024/02/03 08:06:34;;;;;;;1.70;1.60;;;;;;;19.54;47.29;98581.59;5053840;28;20211;-24
2024/02/03 08:09:01;;;;;;;1.90;1.80;;;;;;;19.54;47.14;98589.25;5058910;28;20201;-26
2024/02/03 08:11:27;;;;;;;1.80;1.70;;;;;;;19.54;47.30;98581.59;5054462;28;20200;-26
2024/02/03 08:13:54;;;;;;;1.70;1.60;;;;;;;19.54;47.12;98575.63;5058041;28;20292;-25
2024/02/03 08:16:20;;;;;;;2.53;1.67;;;;;;;19.54;47.12;98579.03;5054165;28;20244;-26
2024/02/03 08:18:47;;;;;;;2.10;2.00;;;;;;;19.53;46.91;98577.28;5061773;28;20222;-25
2024/02/03 08:21:14;;;;;;;2.23;2.03;;;;;;;19.53;46.64;98576.41;5060703;28;20205;-24
2024/02/03 08:23:40;;;;;;;1.93;1.83;;;;;;;19.52;46.52;98574.66;5043095;28;20679;-24
2024/02/03 08:26:07;;;;;;;2.43;2.23;;;;;;;19.50;46.59;98583.88;5049009;28;20224;-25
2024/02/03 08:28:33;;;;;;;2.83;2.60;;;;;;;19.49;45.26;98577.06;5052860;28;20235;-25
2024/02/03 08:31:00;;;;;;;5.60;2.60;;;;;;;19.46;45.36;98579.44;5053811;28;20201;-25
2024/02/03 08:33:27;;;;;;;2.80;2.60;;;;;;;19.45;45.12;98585.34;5049122;28;20690;-25
2024/02/03 08:35:54;;;;;;;2.90;2.70;;;;;;;18.80;44.23;98476.38;5052582;28;20274;-25
2024/02/03 08:38:21;;;;;;;2.77;2.57;;;;;;;19.41;44.34;98581.72;5048295;28;20217;-25
2024/02/03 08:40:48;;;;;;;2.90;2.70;;;;;;;19.39;45.05;98590.97;5063429;28;20747;-24
2024/02/03 08:43:15;;;;;;;4.63;2.77;;;;;;;19.39;45.26;98583.31;5060832;28;20381;-26
2024/02/03 08:45:42;;;;;;;3.07;2.70;;;;;;;19.40;45.34;98579.09;5053361;28;20221;-24
2024/02/03 08:48:08;;;;;;;2.80;2.60;;;;;;;19.40;45.13;98580.00;5054641;28;20674;-26
2024/02/03 08:50:35;;;;;;;3.10;2.80;;;;;;;19.41;44.89;98574.09;5064966;28;20209;-26
2024/02/03 08:53:02;;;;;;;3.20;2.90;;;;;;;19.40;45.08;98571.47;5054472;28;20232;-24
2024/02/03 08:55:28;;;;;;;3.23;2.93;;;;;;;19.41;44.96;98568.09;5065701;28;20426;-25
2024/02/03 08:57:55;;;;;;;3.80;2.90;;;;;;;19.42;44.95;98583.47;5052265;28;20221;-26
2024/02/03 09:00:22;;;;;;;3.30;3.00;;;;;;;19.41;45.15;98579.19;5049371;28;20707;-26
2024/02/03 09:02:49;;;;;;;3.10;2.90;;;;;;;19.42;45.03;98572.44;5052575;28;20283;-25
2024/02/03 09:05:16;;;;;;;3.10;2.90;;;;;;;19.41;45.26;98573.19;5054564;28;20248;-24
2024/02/03 09:07:43;;;;;;;3.27;2.97;;;;;;;19.41;45.28;98575.75;5055263;28;20196;-26
2024/02/03 09:10:09;;;;;;;3.27;2.97;;;;;;;19.41;45.31;98571.53;5053027;28;20629;-25
2024/02/03 09:12:36;;;;;;;2.70;2.50;;;;;;;19.42;45.37;98567.34;5058603;28;20205;-24
2024/02/03 09:15:03;;;;;;;2.70;2.50;;;;;;;19.42;45.43;98570.72;5061716;28;20655;-25
2024/02/03 09:17:30;;;;;;;2.87;2.67;;;;;;;19.42;45.50;98578.38;5063661;28;20263;-25
2024/02/03 09:19:56;;;;;;;3.20;2.60;;;;;;;19.43;45.55;98569.06;5061038;28;20204;-25
2024/02/03 09:22:23;;;;;;;3.23;2.70;;;;;;;19.43;45.50;98569.06;5052750;28;20201;-24
2024/02/03 09:24:50;;;;;;;3.13;2.83;;;;;;;19.38;45.75;98566.28;5070447;22;20294;-25
2024/02/03 09:27:16;;;;;;;2.50;2.30;;;;;;;19.45;45.62;98582.78;5037047;28;20308;-25
2024/02/03 09:29:43;;;;;;;2.60;2.40;;;;;;;19.46;45.66;98587.09;5039885;28;20201;-28
2024/02/03 09:32:09;;;;;;;3.10;2.80;;;;;;;19.46;45.45;98584.53;5038544;28;20198;-25
2024/02/03 09:34:36;;;;;;;2.90;2.70;;;;;;;19.46;45.34;98581.97;5034896;28;20202;-25
2024/02/03 09:37:06;;;;;;;3.27;2.97;;;;;;;19.46;45.48;98590.53;5020868;28;20687;-25
2024/02/03 09:39:37;;;;;;;2.80;2.60;;;;;;;19.48;45.56;98591.47;5016728;28;20221;-25
2024/02/03 09:42:04;;;;;;;3.30;3.00;;;;;;;19.48;45.53;98591.47;5016007;28;20206;-27
2024/02/03 09:44:30;;;;;;;2.83;2.63;;;;;;;19.49;45.98;98598.34;4999836;28;20234;-25
2024/02/03 09:46:57;;;;;;;3.10;2.80;;;;;;;19.49;45.79;98595.78;5017705;28;20226;-25
2024/02/03 09:49:24;;;;;;;2.90;2.70;;;;;;;19.48;45.68;98590.59;4998663;28;20191;-25
2024/02/03 09:51:50;;;;;;;3.03;2.80;;;;;;;19.50;45.52;98581.34;5019274;28;20264;-28
2024/02/03 09:54:17;;;;;;;2.80;2.60;;;;;;;19.50;45.69;98601.75;5005790;28;20198;-25
2024/02/03 09:56:45;;;;;;;2.63;2.43;;;;;;;19.50;45.77;98591.53;5017634;28;20226;-25
2024/02/03 09:59:14;;;;;;;2.60;2.40;;;;;;;19.49;45.89;98593.25;5021790;28;20912;-25
2024/02/03 10:01:45;;;;;;;2.70;2.50;;;;;;;19.50;45.68;98594.97;5013938;28;20206;-25
2024/02/03 10:04:13;;;;;;;2.30;2.10;;;;;;;19.49;45.62;98585.59;5012990;28;20199;-25
2024/02/03 10:06:47;;;;;;;2.40;2.20;;;;;;;19.53;45.48;98589.16;5013141;28;20225;-26
2024/02/03 10:09:23;;;;;;;2.50;2.30;;;;;;;19.54;45.49;98586.69;5020268;28;20202;-25
2024/02/03 10:11:50;;;;;;;2.97;2.50;;;;;;;19.56;45.54;98599.53;5008581;28;20294;-25
2024/02/03 10:14:20;;;;;;;2.57;2.37;;;;;;;19.57;45.56;98593.66;5018688;28;20282;-25
2024/02/03 10:16:49;;;;;;;2.70;2.50;;;;;;;19.57;45.65;98599.59;5020747;28;20222;-25
2024/02/03 10:19:16;;;;;;;2.40;2.20;;;;;;;19.58;45.52;98592.84;5000017;28;20308;-25
2024/02/03 10:21:42;;;;;;;2.63;2.40;;;;;;;19.60;45.33;98591.25;5002665;28;20289;-25
2024/02/03 10:24:09;;;;;;;4.27;2.40;;;;;;;19.60;45.42;98587.00;5013318;28;20676;-25
2024/02/03 10:26:36;;;;;;;2.60;2.40;;;;;;;19.61;45.67;98582.81;5018482;28;20238;-25
2024/02/03 10:29:03;;;;;;;2.53;2.33;;;;;;;19.62;45.75;98584.56;5015496;28;20609;-25
2024/02/03 10:31:29;;;;;;;2.90;2.20;;;;;;;19.61;45.70;98581.16;5020341;28;20203;-25
2024/02/03 10:34:03;;;;;;;2.50;2.30;;;;;;;19.59;45.11;98575.06;5019901;28;20205;-25
2024/02/03 10:36:29;;;;;;;7.67;2.87;;;;;;;19.57;44.39;98574.09;4984417;28;20480;-25
2024/02/03 10:38:56;;;;;;;2.50;2.30;;;;;;;19.57;44.93;98573.25;5011107;28;20221;-26
2024/02/03 10:41:22;;;;;;;2.60;2.40;;;;;;;19.53;45.16;98554.34;5012538;28;20206;-25
2024/02/03 10:43:49;;;;;;;2.27;2.07;;;;;;;19.57;45.02;98548.59;4984836;28;20636;-25
2024/02/03 10:46:16;;;;;;;2.63;2.43;;;;;;;19.59;45.12;98546.13;4988825;28;20221;-25
2024/02/03 10:48:45;;;;;;;2.73;2.50;;;;;;;19.57;45.08;98540.97;4980549;28;20606;-26
2024/02/03 10:51:18;;;;;;;5.20;2.40;;;;;;;19.58;45.43;98544.38;4979008;28;20203;-25
2024/02/03 10:53:46;;;;;;;2.33;2.13;;;;;;;19.56;45.35;98559.59;4997278;28;20209;-27
2024/02/03 10:56:13;;;;;;;3.43;2.10;;;;;;;19.54;45.50;98553.53;4994406;28;20756;-28
2024/02/03 10:58:39;;;;;;;2.13;1.90;;;;;;;19.55;45.53;98554.44;5022819;28;20218;-25
2024/02/03 11:01:17;;;;;;;3.17;2.47;;;;;;;19.57;45.63;98557.94;4997252;28;20193;-25
2024/02/03 11:03:47;;;;;;;3.57;2.23;;;;;;;19.55;45.83;98555.31;5012414;28;20684;-25
2024/02/03 11:06:27;;;;;;;3.37;2.20;;;;;;;19.55;45.57;98550.22;5016588;28;20225;-25
2024/02/03 11:09:09;;;;;;;5.50;2.90;;;;;;;19.56;45.95;98541.75;5011408;28;20198;-25
2024/02/03 11:11:38;;;;;;;4.87;2.63;;;;;;;19.57;46.01;98533.31;5004073;28;20233;-25
2024/02/03 11:14:04;;;;;;;6.97;2.57;;;;;;;19.57;46.02;98532.44;5019067;28;20628;-25
2024/02/03 11:16:38;;;;;;;5.77;3.07;;;;;;;19.56;46.08;98526.47;5012104;28;20361;-25
2024/02/03 11:19:07;;;;;;;9.43;3.17;;;;;;;19.58;45.97;98529.97;5012152;28;20218;-25
2024/02/03 11:21:40;;;;;;;5.37;2.87;;;;;;;19.59;45.89;98541.03;5019366;28;20201;-25
2024/02/03 11:24:07;;;;;;;8.97;2.90;;;;;;;19.59;46.09;98541.03;5018388;28;20208;-25
2024/02/03 11:26:34;;;;;;;7.30;2.87;;;;;;;19.60;46.13;98550.47;5016030;28;20240;-25
2024/02/03 11:29:00;;;;;;;5.97;3.20;;;;;;;19.59;46.34;98543.59;4996108;28;20195;-25
2024/02/03 11:31:30;;;;;;;6.80;3.30;;;;;;;19.59;46.21;98538.47;5015645;28;20664;-25
2024/02/03 11:33:57;;;;;;;8.40;3.10;;;;;;;19.59;46.40;98539.38;5026445;28;20276;-25